Time;durP1;ratioP1;P1;durP2;ratioP2;P2;SDS_P1;SDS_P2;PMS_P1;PMS_P2;Temp;Humidity;BMP_temperature;BMP_pressure;BME280_temperature;BME280_humidity;BME280_pressure;Samples;Min_cycle;Max_cycle;Signal;HPM_P1;HPM_P2
2022/02/16 00:00:19;;;;;;;21.87;13.35;;;;;;;-0.96;97.91;100998.08;1732594;82;21312;-83
2022/02/16 00:03:24;;;;;;;20.62;14.28;;;;;;;-0.95;97.90;101002.49;1732693;83;21292;-84
2022/02/16 00:06:30;;;;;;;23.45;13.90;;;;;;;-0.89;97.93;101010.23;1732579;83;21317;-76
2022/02/16 00:09:35;;;;;;;25.90;14.35;;;;;;;-0.86;97.96;100999.77;1732818;83;21178;-84
2022/02/16 00:12:42;;;;;;;29.55;14.53;;;;;;;-0.79;97.95;101002.52;1731015;83;21201;-84
2022/02/16 00:15:48;;;;;;;33.48;17.42;;;;;;;-0.74;97.77;100996.89;1732638;82;21328;-76
2022/02/16 00:18:53;;;;;;;44.50;22.90;;;;;;;-0.72;97.49;100986.91;1732348;82;21966;-76
2022/02/16 00:22:00;;;;;;;41.08;24.05;;;;;;;-0.76;97.11;100984.86;1732963;82;21327;-84
2022/02/16 00:25:05;;;;;;;44.08;23.22;;;;;;;-0.86;96.83;100981.83;1732642;82;21556;-76
2022/02/16 00:28:10;;;;;;;42.62;22.42;;;;;;;-0.98;96.87;100985.23;1733505;82;21804;-84
2022/02/16 00:31:18;;;;;;;39.55;21.57;;;;;;;-1.08;97.24;100979.99;1733850;81;21352;-84
2022/02/16 00:34:23;;;;;;;32.60;19.98;;;;;;;-1.13;97.71;100980.70;1733790;82;21340;-76
2022/02/16 00:37:29;;;;;;;36.50;21.75;;;;;;;-1.13;98.12;100976.67;1733182;82;21252;-84
2022/02/16 00:40:35;;;;;;;35.20;19.82;;;;;;;-1.19;98.24;100981.05;1722363;82;21296;-83
2022/02/16 00:43:42;;;;;;;29.80;17.67;;;;;;;-1.19;98.53;100978.36;1704642;84;21323;-75
2022/02/16 00:46:47;;;;;;;25.32;16.05;;;;;;;-1.21;98.73;100973.09;1703879;84;21806;-76
2022/02/16 00:49:52;;;;;;;30.95;17.70;;;;;;;-1.22;98.94;100969.13;1704756;84;21280;-76
2022/02/16 00:53:00;;;;;;;26.20;16.65;;;;;;;-1.30;99.14;100967.75;1703582;84;21399;-83
2022/02/16 00:56:05;;;;;;;24.37;15.18;;;;;;;-1.31;99.52;100959.31;1704125;83;21778;-77
2022/02/16 00:59:13;;;;;;;22.93;14.33;;;;;;;-1.33;99.77;100961.20;1703363;84;21888;-83
2022/02/16 01:02:18;;;;;;;37.13;18.55;;;;;;;-1.36;99.98;100956.02;1678054;84;21302;-84
2022/02/16 01:05:25;;;;;;;25.08;16.07;;;;;;;-1.33;100.00;100961.20;1704765;84;21187;-76
2022/02/16 01:08:32;;;;;;;24.95;15.88;;;;;;;-1.23;100.00;100955.31;1704975;84;21295;-84
2022/02/16 01:11:37;;;;;;;29.40;17.55;;;;;;;-1.20;100.00;100952.47;1704585;82;21223;-85
2022/02/16 01:14:38;;;;;;;16.95;11.83;;;;;;;-1.17;100.00;100957.69;1704692;84;21287;-76
2022/02/16 01:17:46;;;;;;;21.82;15.60;;;;;;;-1.13;100.00;100953.84;1705104;83;21290;-79
2022/02/16 01:20:55;;;;;;;13.80;9.83;;;;;;;-1.21;100.00;100953.44;1717972;83;21804;-76
2022/02/16 01:24:01;;;;;;;19.40;13.60;;;;;;;-1.24;100.00;100957.62;1717871;83;21831;-76
2022/02/16 01:27:06;;;;;;;24.07;16.05;;;;;;;-1.29;100.00;100956.05;1759654;81;21342;-76
2022/02/16 01:30:16;;;;;;;21.52;15.00;;;;;;;-1.35;100.00;100956.41;1760431;81;21263;-76
2022/02/16 01:33:26;;;;;;;27.67;16.27;;;;;;;-1.39;100.00;100960.20;1760251;81;21240;-76
2022/02/16 01:36:32;;;;;;;25.20;14.98;;;;;;;-1.40;100.00;100967.00;1760117;81;21299;-76
2022/02/16 01:39:37;;;;;;;22.25;14.00;;;;;;;-1.39;100.00;100963.36;1760379;81;21161;-76
2022/02/16 01:42:42;;;;;;;28.75;17.60;;;;;;;-1.38;100.00;100960.59;1720021;83;21311;-83
2022/02/16 01:45:50;;;;;;;26.37;15.83;;;;;;;-1.37;100.00;100964.99;1720204;83;21277;-84
2022/02/16 01:48:56;;;;;;;28.95;17.67;;;;;;;-1.35;100.00;100956.88;1719616;83;21324;-84
2022/02/16 01:52:02;;;;;;;23.87;15.68;;;;;;;-1.30;100.00;100962.37;1719642;83;21890;-76
2022/02/16 01:55:09;;;;;;;26.50;16.32;;;;;;;-1.25;100.00;100967.97;1725075;81;21294;-84
2022/02/16 01:58:16;;;;;;;26.90;18.07;;;;;;;-1.19;100.00;100963.12;1741607;82;21204;-84
2022/02/16 02:01:35;;;;;;;23.62;14.90;;;;;;;-1.13;100.00;100962.80;1710582;82;21330;-78
2022/02/16 02:04:40;;;;;;;29.70;17.07;;;;;;;-1.08;100.00;100962.54;1742823;82;21274;-84
2022/02/16 02:07:45;;;;;;;33.98;17.55;;;;;;;-1.02;100.00;100964.88;1741873;82;21302;-84
2022/02/16 02:10:50;;;;;;;18.98;13.18;;;;;;;-0.99;100.00;100966.02;1742673;81;21334;-76
2022/02/16 02:14:06;;;;;;;27.45;15.08;;;;;;;-0.98;100.00;100969.13;1742418;82;21153;-76
2022/02/16 02:17:13;;;;;;;21.50;14.47;;;;;;;-0.98;100.00;100960.20;1742325;82;21253;-84
2022/02/16 02:20:31;;;;;;;22.87;15.60;;;;;;;-0.95;100.00;100962.21;1728452;82;21846;-84
2022/02/16 02:23:37;;;;;;;23.45;16.02;;;;;;;-0.98;100.00;100959.72;1708032;84;21310;-76
2022/02/16 02:26:43;;;;;;;22.80;14.28;;;;;;;-0.93;100.00;100953.61;1695596;82;21240;-76
2022/02/16 02:29:49;;;;;;;18.73;12.35;;;;;;;-0.85;100.00;100959.42;1728265;83;21842;-84
2022/02/16 02:32:54;;;;;;;21.07;14.60;;;;;;;-0.81;100.00;100960.95;1726763;83;21266;-76
2022/02/16 02:35:58;;;;;;;20.55;13.78;;;;;;;-0.78;100.00;100952.72;1726688;83;21793;-77
2022/02/16 02:39:04;;;;;;;21.00;13.70;;;;;;;-0.80;100.00;100957.33;1726713;83;21810;-84
2022/02/16 02:42:11;;;;;;;21.35;13.98;;;;;;;-0.86;100.00;100959.00;1736975;82;21750;-84
2022/02/16 02:45:16;;;;;;;22.32;14.00;;;;;;;-0.86;100.00;100950.95;1736206;82;21279;-76
2022/02/16 02:48:23;;;;;;;18.45;12.43;;;;;;;-0.84;100.00;100951.74;1736279;82;21339;-84
2022/02/16 02:51:27;;;;;;;19.20;12.45;;;;;;;-0.82;100.00;100950.30;1737831;82;21856;-76
2022/02/16 02:54:32;;;;;;;21.70;14.35;;;;;;;-0.85;100.00;100952.70;1718569;82;21283;-84
2022/02/16 02:57:38;;;;;;;19.00;13.75;;;;;;;-0.86;100.00;100952.29;1736719;82;21209;-76
2022/02/16 03:00:45;;;;;;;18.35;12.58;;;;;;;-0.82;100.00;100961.91;1737521;82;21237;-84
2022/02/16 03:03:51;;;;;;;24.50;14.00;;;;;;;-0.81;100.00;100955.58;1737418;82;21264;-76
2022/02/16 03:06:58;;;;;;;27.67;16.42;;;;;;;-0.80;100.00;100951.06;1736219;82;21883;-84
2022/02/16 03:10:04;;;;;;;29.48;16.87;;;;;;;-0.79;100.00;100955.50;1732020;82;21302;-76
2022/02/16 03:13:19;;;;;;;25.08;16.00;;;;;;;-0.78;100.00;100950.52;1706797;84;21220;-84
2022/02/16 03:16:20;;;;;;;27.60;16.82;;;;;;;-0.80;100.00;100954.64;1708265;84;21211;-84
2022/02/16 03:19:25;;;;;;;26.57;16.73;;;;;;;-0.82;100.00;100945.79;1707936;84;21322;-83
2022/02/16 03:22:32;;;;;;;32.58;20.02;;;;;;;-0.81;100.00;100945.31;1697761;84;21844;-76
2022/02/16 03:25:37;;;;;;;25.10;16.25;;;;;;;-0.80;100.00;100949.27;1697783;84;21293;-83
2022/02/16 03:28:44;;;;;;;24.98;16.12;;;;;;;-0.75;100.00;100943.64;1697483;84;21338;-84
2022/02/16 03:31:52;;;;;;;27.32;15.80;;;;;;;-0.74;100.00;100939.13;1696766;84;21775;-76
2022/02/16 03:34:57;;;;;;;27.00;16.93;;;;;;;-0.73;100.00;100936.34;1696609;84;21359;-84
2022/02/16 03:38:04;;;;;;;25.70;17.40;;;;;;;-0.72;100.00;100933.17;1696731;84;21343;-83
2022/02/16 03:41:09;;;;;;;28.15;17.60;;;;;;;-0.70;100.00;100935.31;1696462;84;21304;-76
2022/02/16 03:44:15;;;;;;;29.02;17.95;;;;;;;-0.69;100.00;100941.06;1696599;84;21345;-80
2022/02/16 03:47:22;;;;;;;28.90;17.87;;;;;;;-0.68;100.00;100941.45;1696578;84;21354;-76
2022/02/16 03:50:28;;;;;;;28.05;19.48;;;;;;;-0.65;100.00;100933.22;1696406;84;21191;-84
2022/02/16 03:53:37;;;;;;;29.57;19.90;;;;;;;-0.64;100.00;100936.28;1695608;84;21175;-76
2022/02/16 03:56:42;;;;;;;28.50;18.42;;;;;;;-0.65;100.00;100936.77;1696650;84;21328;-76
2022/02/16 03:59:48;;;;;;;29.35;19.52;;;;;;;-0.67;100.00;100929.73;1697129;84;21327;-76
2022/02/16 04:03:12;;;;;;;29.87;19.35;;;;;;;-0.69;100.00;100939.72;1697719;84;21216;-76
2022/02/16 04:06:17;;;;;;;30.23;17.85;;;;;;;-0.69;100.00;100942.41;1684251;84;21253;-83
2022/02/16 04:09:22;;;;;;;35.13;21.30;;;;;;;-0.69;100.00;100945.09;1697903;84;21215;-83
2022/02/16 04:12:30;;;;;;;33.88;19.55;;;;;;;-0.68;100.00;100944.13;1696319;84;21216;-76
2022/02/16 04:15:36;;;;;;;31.50;20.90;;;;;;;-0.73;100.00;100938.16;1697805;84;21276;-76
2022/02/16 04:18:42;;;;;;;34.92;22.27;;;;;;;-0.79;100.00;100933.53;1697526;84;21323;-76
2022/02/16 04:21:47;;;;;;;33.28;19.07;;;;;;;-0.80;100.00;100936.29;1701338;84;21360;-85
2022/02/16 04:24:55;;;;;;;27.50;18.73;;;;;;;-0.81;100.00;100938.11;1713122;82;21323;-75
2022/02/16 04:28:02;;;;;;;36.40;21.10;;;;;;;-0.83;100.00;100929.30;1725826;82;21840;-75
2022/02/16 04:31:07;;;;;;;42.67;22.95;;;;;;;-0.86;100.00;100925.42;1709934;84;21264;-84
2022/02/16 04:34:13;;;;;;;38.40;22.00;;;;;;;-0.86;100.00;100924.56;1708630;84;21862;-84
2022/02/16 04:37:18;;;;;;;33.48;18.62;;;;;;;-0.87;100.00;100929.08;1711207;82;21244;-84
2022/02/16 04:40:23;;;;;;;43.65;24.18;;;;;;;-0.80;100.00;100925.09;1718415;82;21327;-76
2022/02/16 04:43:32;;;;;;;42.00;25.35;;;;;;;-0.79;100.00;100919.24;1708729;84;21826;-76
2022/02/16 04:46:35;;;;;;;44.70;24.40;;;;;;;-0.83;100.00;100920.38;1709867;84;21199;-83
2022/02/16 04:49:41;;;;;;;47.33;25.70;;;;;;;-0.88;100.00;100923.32;1710015;82;21288;-76
2022/02/16 04:52:49;;;;;;;45.40;23.77;;;;;;;-0.90;100.00;100923.00;1708839;84;21390;-76
2022/02/16 04:55:57;;;;;;;38.95;22.55;;;;;;;-0.95;100.00;100917.90;1724225;82;21220;-76
2022/02/16 04:59:04;;;;;;;37.17;21.62;;;;;;;-0.94;100.00;100929.05;1735838;82;21324;-76
2022/02/16 05:02:09;;;;;;;38.45;22.80;;;;;;;-0.95;100.00;100927.30;1738855;82;21225;-76
2022/02/16 05:05:15;;;;;;;34.75;20.90;;;;;;;-0.94;100.00;100929.50;1739669;82;21166;-76
2022/02/16 05:08:21;;;;;;;36.45;21.35;;;;;;;-0.95;100.00;100940.73;1733311;82;21350;-83
2022/02/16 05:11:26;;;;;;;32.95;20.23;;;;;;;-0.96;100.00;100939.48;1709833;81;21385;-76
2022/02/16 05:14:33;;;;;;;33.98;19.57;;;;;;;-0.98;100.00;100935.55;1710296;84;21812;-79
2022/02/16 05:17:38;;;;;;;36.13;20.48;;;;;;;-0.95;100.00;100942.07;1710653;82;21318;-84
2022/02/16 05:20:55;;;;;;;27.95;18.85;;;;;;;-0.91;100.00;100942.77;1704652;83;21324;-83
2022/02/16 05:24:01;;;;;;;33.45;20.45;;;;;;;-0.81;100.00;100939.45;1705498;84;21319;-76
2022/02/16 05:27:07;;;;;;;32.30;21.00;;;;;;;-0.71;100.00;100942.95;1715147;82;21354;-84
2022/02/16 05:30:14;;;;;;;32.05;20.45;;;;;;;-0.72;100.00;100943.91;1739871;82;21272;-76
2022/02/16 05:33:19;;;;;;;31.75;20.82;;;;;;;-0.75;100.00;100948.11;1739586;82;21853;-76
2022/02/16 05:36:27;;;;;;;36.35;22.50;;;;;;;-0.73;100.00;100951.12;1731714;82;21191;-83
2022/02/16 05:39:31;;;;;;;40.12;22.62;;;;;;;-0.69;100.00;100949.13;1719973;82;21386;-83
2022/02/16 05:42:37;;;;;;;41.35;24.82;;;;;;;-0.69;100.00;100948.64;1728181;82;21283;-84
2022/02/16 05:45:41;;;;;;;46.20;25.88;;;;;;;-0.67;100.00;100952.58;1705493;82;21664;-76
2022/02/16 05:48:48;;;;;;;39.63;21.55;;;;;;;-0.66;100.00;100949.82;1726628;82;21136;-83
2022/02/16 05:51:56;;;;;;;36.63;22.45;;;;;;;-0.66;100.00;100939.52;1707816;83;21839;-75
2022/02/16 05:55:01;;;;;;;33.60;20.65;;;;;;;-0.69;100.00;100945.95;1716279;83;21307;-76
2022/02/16 05:58:08;;;;;;;39.73;21.55;;;;;;;-0.72;100.00;100946.13;1720366;83;21292;-76
2022/02/16 06:01:14;;;;;;;33.42;18.75;;;;;;;-0.72;100.00;100949.29;1725599;83;21730;-85
2022/02/16 06:04:22;;;;;;;30.05;18.25;;;;;;;-0.73;100.00;100958.31;1713000;83;21436;-85
2022/02/16 06:07:28;;;;;;;30.08;18.05;;;;;;;-0.68;100.00;100954.88;1719880;83;21283;-85
2022/02/16 06:10:33;;;;;;;34.08;20.43;;;;;;;-0.63;100.00;100959.02;1719539;83;21189;-78
2022/02/16 06:13:39;;;;;;;26.27;18.12;;;;;;;-0.56;100.00;100963.10;1722758;83;21873;-77
2022/02/16 06:16:45;;;;;;;26.73;16.35;;;;;;;-0.40;100.00;100960.37;1724278;80;21683;-85
2022/02/16 06:19:52;;;;;;;27.65;18.35;;;;;;;-0.29;100.00;100959.24;1723917;83;21345;-85
2022/02/16 06:22:58;;;;;;;26.60;16.85;;;;;;;-0.21;100.00;100952.08;1724208;83;21157;-85
2022/02/16 06:26:04;;;;;;;27.90;16.62;;;;;;;-0.14;100.00;100958.83;1711467;83;21598;-85
2022/02/16 06:29:10;;;;;;;23.12;15.85;;;;;;;-0.13;100.00;100945.77;1715387;83;21268;-84
2022/02/16 06:32:34;;;;;;;29.40;20.27;;;;;;;-0.12;100.00;100926.46;1707976;83;21480;-76
2022/02/16 06:35:41;;;;;;;36.95;26.25;;;;;;;-0.20;100.00;100909.92;1703029;83;21722;-84
2022/02/16 06:38:48;;;;;;;50.67;39.45;;;;;;;-0.30;100.00;100906.92;1710221;83;21747;-76
2022/02/16 06:41:53;;;;;;;43.65;31.52;;;;;;;-0.33;100.00;100905.75;1716727;83;21879;-84
2022/02/16 06:44:59;;;;;;;50.08;38.35;;;;;;;-0.29;100.00;100914.88;1714116;83;21299;-84
2022/02/16 06:48:10;;;;;;;29.67;20.85;;;;;;;-0.16;100.00;100936.53;1711919;82;21161;-76
2022/02/16 06:51:14;;;;;;;34.05;17.37;;;;;;;0.08;100.00;100942.23;1707324;83;21674;-76
2022/02/16 06:54:20;;;;;;;23.30;15.35;;;;;;;0.29;100.00;100941.89;1712158;83;21319;-77
2022/02/16 06:57:26;;;;;;;24.50;16.40;;;;;;;0.51;100.00;100935.05;1715052;83;21732;-77
2022/02/16 07:00:33;;;;;;;24.25;15.00;;;;;;;0.68;100.00;100935.33;1711583;83;21268;-77
2022/02/16 07:03:39;;;;;;;20.88;13.90;;;;;;;0.83;100.00;100935.31;1707911;83;21330;-77
2022/02/16 07:06:48;;;;;;;21.30;14.43;;;;;;;0.98;100.00;100938.35;1708503;83;21221;-77
2022/02/16 07:09:53;;;;;;;17.73;12.33;;;;;;;1.10;99.78;100942.95;1710595;82;21292;-77
2022/02/16 07:13:00;;;;;;;23.75;14.95;;;;;;;1.22;99.32;100946.66;1709849;83;21316;-77
2022/02/16 07:16:08;;;;;;;29.23;16.65;;;;;;;1.38;98.97;100942.00;1699411;83;21564;-76
2022/02/16 07:19:22;;;;;;;23.70;15.03;;;;;;;1.56;98.28;100929.61;1711299;83;21296;-77
2022/02/16 07:22:34;;;;;;;21.90;14.18;;;;;;;1.74;97.66;100914.84;1715414;82;21165;-77
2022/02/16 07:25:40;;;;;;;23.07;15.48;;;;;;;1.74;95.72;100886.52;1713960;82;21201;-77
2022/02/16 07:28:49;;;;;;;20.17;13.05;;;;;;;1.56;94.51;100907.55;1708991;83;21209;-76
2022/02/16 07:31:55;;;;;;;18.67;12.25;;;;;;;1.52;94.76;100928.94;1707679;82;21957;-76
2022/02/16 07:35:00;;;;;;;18.73;13.08;;;;;;;1.62;94.99;100906.27;1715693;83;21237;-77
2022/02/16 07:38:07;;;;;;;24.55;14.68;;;;;;;1.61;94.37;100898.66;1712891;83;21608;-77
2022/02/16 07:41:13;;;;;;;24.23;14.65;;;;;;;1.57;94.08;100895.79;1709327;83;21217;-77
2022/02/16 07:44:25;;;;;;;23.55;13.72;;;;;;;1.52;94.01;100896.59;1755712;81;21577;-77
2022/02/16 07:47:28;;;;;;;20.52;13.38;;;;;;;1.44;93.87;100899.79;1750967;81;21295;-79
2022/02/16 07:50:36;;;;;;;22.98;14.83;;;;;;;1.47;94.16;100892.86;1757733;81;21298;-78
2022/02/16 07:53:59;;;;;;;18.27;12.47;;;;;;;1.54;94.34;100897.34;1761256;80;21776;-78
2022/02/16 07:57:08;;;;;;;17.85;13.05;;;;;;;1.73;94.56;100899.15;1759549;79;21273;-86
2022/02/16 08:00:14;;;;;;;22.07;13.10;;;;;;;1.86;94.22;100894.27;1757419;81;21176;-78
2022/02/16 08:03:21;;;;;;;17.77;12.78;;;;;;;1.98;94.10;100909.62;1721036;82;21314;-86
2022/02/16 08:06:26;;;;;;;19.23;12.65;;;;;;;2.16;94.12;100904.25;1762365;81;21401;-85
2022/02/16 08:09:31;;;;;;;23.22;12.90;;;;;;;2.34;93.53;100898.53;1758031;81;21325;-85
2022/02/16 08:12:40;;;;;;;20.20;13.20;;;;;;;2.35;92.32;100897.55;1758151;81;21185;-83
2022/02/16 08:15:46;;;;;;;24.30;13.53;;;;;;;2.34;92.21;100898.05;1755189;81;21497;-84
2022/02/16 08:18:51;;;;;;;21.25;13.88;;;;;;;2.41;91.95;100886.34;1760916;81;22240;-84
2022/02/16 08:21:58;;;;;;;23.22;13.85;;;;;;;2.39;91.35;100870.72;1755487;81;21382;-84
2022/02/16 08:25:04;;;;;;;22.30;13.60;;;;;;;2.35;91.20;100865.16;1760825;81;21684;-84
2022/02/16 08:28:13;;;;;;;20.70;13.22;;;;;;;2.33;90.88;100869.33;1752630;81;21224;-83
2022/02/16 08:31:21;;;;;;;19.57;12.53;;;;;;;2.35;90.66;100870.56;1754485;81;21339;-84
2022/02/16 08:34:30;;;;;;;21.90;13.83;;;;;;;2.43;90.82;100868.18;1758025;81;21332;-84
2022/02/16 08:37:44;;;;;;;20.70;13.05;;;;;;;2.53;90.83;100874.63;1761380;79;21702;-84
2022/02/16 08:40:42;;;;;;;26.15;12.58;;;;;;;2.69;91.47;100870.35;1715065;81;22096;-84
2022/02/16 08:43:48;;;;;;;35.48;12.73;;;;;;;2.90;91.14;100870.11;1720824;82;21279;-84
2022/02/16 08:46:54;;;;;;;21.87;14.78;;;;;;;3.06;90.36;100872.55;1752412;81;21595;-85
2022/02/16 08:49:59;;;;;;;22.67;14.60;;;;;;;3.16;89.25;100877.64;1747054;81;21358;-84
2022/02/16 08:53:05;;;;;;;21.30;13.62;;;;;;;3.28;88.59;100875.84;1760157;81;21901;-85
2022/02/16 08:56:11;;;;;;;21.97;13.95;;;;;;;3.39;88.27;100876.37;1757930;81;21287;-85
2022/02/16 08:59:18;;;;;;;18.95;12.73;;;;;;;3.50;87.92;100862.91;1753844;81;21138;-84
2022/02/16 09:02:27;;;;;;;20.43;13.98;;;;;;;3.59;86.78;100856.80;1758066;81;21643;-83
2022/02/16 09:05:33;;;;;;;20.43;13.25;;;;;;;3.63;85.82;100852.88;1747645;81;21165;-84
2022/02/16 09:08:38;;;;;;;24.07;13.22;;;;;;;3.71;85.28;100853.61;1755529;81;21255;-85
2022/02/16 09:11:43;;;;;;;21.70;13.45;;;;;;;3.80;85.03;100852.90;1745311;81;21543;-85
2022/02/16 09:14:49;;;;;;;25.20;13.15;;;;;;;3.91;84.46;100854.79;1714257;82;21160;-86
2022/02/16 09:17:55;;;;;;;24.98;13.15;;;;;;;4.03;83.70;100849.75;1756830;81;21561;-86
2022/02/16 09:21:05;;;;;;;15.70;10.88;;;;;;;4.12;83.18;100839.55;1749235;81;21755;-86
2022/02/16 09:24:13;;;;;;;18.92;10.82;;;;;;;4.14;82.59;100829.47;1754616;81;21271;-87
2022/02/16 09:27:22;;;;;;;21.37;10.55;;;;;;;4.17;82.58;100829.20;1756134;80;21698;-85
2022/02/16 09:30:33;;;;;;;16.25;10.45;;;;;;;4.22;82.52;100827.48;1769086;80;21590;-85
2022/02/16 09:33:39;;;;;;;17.77;10.75;;;;;;;4.23;81.36;100811.59;1763256;80;21249;-77
2022/02/16 09:36:49;;;;;;;15.35;9.63;;;;;;;4.18;80.85;100814.67;1763592;79;21307;-77
2022/02/16 09:39:54;;;;;;;16.65;9.55;;;;;;;4.22;81.21;100815.30;1763075;80;21306;-76
2022/02/16 09:43:01;;;;;;;16.15;10.20;;;;;;;4.28;81.50;100812.98;1770964;80;21859;-76
2022/02/16 09:46:06;;;;;;;17.05;9.95;;;;;;;4.40;82.06;100798.06;1767943;80;21678;-76
2022/02/16 09:49:12;;;;;;;19.17;11.40;;;;;;;4.50;81.95;100804.45;1766028;80;21141;-76
2022/02/16 09:52:23;;;;;;;20.57;11.65;;;;;;;4.58;81.35;100796.56;1765379;80;21607;-85
2022/02/16 09:55:28;;;;;;;13.83;7.85;;;;;;;4.65;80.96;100800.47;1729385;82;21670;-83
2022/02/16 09:58:33;;;;;;;20.97;11.93;;;;;;;4.76;80.64;100799.11;1707083;83;21313;-86
2022/02/16 10:01:37;;;;;;;20.77;10.65;;;;;;;4.82;80.38;100792.31;1711249;83;21708;-86
2022/02/16 10:04:43;;;;;;;16.97;10.98;;;;;;;4.94;80.00;100786.34;1708398;83;21876;-84
2022/02/16 10:07:51;;;;;;;15.00;9.48;;;;;;;5.03;79.60;100785.08;1715136;83;21332;-85
2022/02/16 10:11:07;;;;;;;18.05;11.48;;;;;;;5.07;79.46;100777.55;1713833;83;22200;-76
2022/02/16 10:14:40;;;;;;;21.87;13.40;;;;;;;5.11;79.42;100779.02;1711347;83;21847;-75
2022/02/16 10:17:45;;;;;;;21.55;12.98;;;;;;;5.15;79.17;100775.06;1712538;83;21299;-75
2022/02/16 10:20:50;;;;;;;19.40;10.78;;;;;;;5.27;79.46;100774.50;1707610;83;21283;-75
2022/02/16 10:23:56;;;;;;;18.37;11.20;;;;;;;5.42;79.20;100766.42;1712427;83;21264;-76
2022/02/16 10:27:02;;;;;;;16.02;8.88;;;;;;;5.57;78.90;100758.30;1703399;83;21321;-76
2022/02/16 10:30:10;;;;;;;15.65;9.03;;;;;;;5.71;77.08;100758.46;1703160;83;21329;-77
2022/02/16 10:33:37;;;;;;;14.90;9.25;;;;;;;5.70;76.35;100754.03;1732442;81;21276;-75
2022/02/16 10:36:46;;;;;;;16.30;9.30;;;;;;;5.74;76.16;100753.25;1702280;84;21290;-83
2022/02/16 10:40:16;;;;;;;13.15;8.03;;;;;;;5.73;74.87;100749.67;1753359;79;21284;-84
2022/02/16 10:43:22;;;;;;;14.10;7.73;;;;;;;5.66;74.60;100743.08;1749589;81;21196;-84
2022/02/16 10:46:32;;;;;;;14.75;9.43;;;;;;;5.69;74.76;100737.86;1758157;81;21332;-85
2022/02/16 10:49:40;;;;;;;16.67;9.55;;;;;;;5.74;74.50;100737.84;1720672;81;21259;-85
2022/02/16 10:52:50;;;;;;;14.18;8.65;;;;;;;5.78;74.25;100732.98;1759538;81;21898;-86
2022/02/16 10:55:56;;;;;;;20.23;10.65;;;;;;;5.73;74.48;100737.96;1727657;81;21278;-85
2022/02/16 10:59:02;;;;;;;15.15;8.40;;;;;;;5.74;74.52;100733.78;1755617;81;21671;-85
2022/02/16 11:02:13;;;;;;;56.05;11.78;;;;;;;5.76;74.82;100731.77;1756718;81;21276;-76
2022/02/16 11:05:18;;;;;;;18.12;8.93;;;;;;;5.74;74.78;100728.34;1757841;81;21295;-77
2022/02/16 11:08:24;;;;;;;12.55;8.68;;;;;;;5.73;75.25;100726.60;1751152;81;21254;-76
2022/02/16 11:11:31;;;;;;;19.48;9.15;;;;;;;5.77;75.47;100720.41;1736769;81;21299;-84
2022/02/16 11:14:37;;;;;;;24.00;9.55;;;;;;;5.73;75.04;100715.74;1754877;81;21291;-74
2022/02/16 11:17:42;;;;;;;13.93;9.13;;;;;;;5.69;74.97;100703.94;1760024;81;21288;-75
2022/02/16 11:20:48;;;;;;;17.07;9.35;;;;;;;5.68;75.24;100704.94;1761951;81;21679;-75
2022/02/16 11:23:58;;;;;;;14.28;9.20;;;;;;;5.63;75.54;100691.77;1756280;81;22253;-75
2022/02/16 11:27:04;;;;;;;15.00;9.43;;;;;;;5.58;75.47;100688.61;1756751;79;21660;-76
2022/02/16 11:30:13;;;;;;;19.42;9.20;;;;;;;5.48;75.38;100690.41;1765505;81;21857;-76
2022/02/16 11:33:29;;;;;;;14.98;9.30;;;;;;;5.42;75.46;100690.96;1764090;81;21766;-76
2022/02/16 11:36:58;;;;;;;17.60;9.48;;;;;;;5.38;75.88;100707.49;1755520;81;21751;-75
2022/02/16 11:40:13;;;;;;;13.88;9.55;;;;;;;5.30;75.99;100708.64;1749906;79;21860;-75
2022/02/16 11:43:22;;;;;;;15.65;9.50;;;;;;;5.23;76.07;100700.69;1744280;79;21245;-75
2022/02/16 11:46:54;;;;;;;16.23;9.40;;;;;;;5.11;76.01;100697.67;1749255;81;21690;-76
2022/02/16 11:49:55;;;;;;;20.15;10.32;;;;;;;5.01;76.95;100688.11;1757096;81;21291;-86
2022/02/16 11:53:02;;;;;;;19.23;10.78;;;;;;;4.96;77.84;100679.52;1755219;81;21153;-84
2022/02/16 11:56:31;;;;;;;21.97;10.72;;;;;;;4.93;78.42;100682.97;1760656;79;21306;-85
2022/02/16 11:59:38;;;;;;;16.52;10.40;;;;;;;4.88;78.75;100682.02;1745920;81;21423;-85
2022/02/16 12:03:10;;;;;;;21.95;11.18;;;;;;;4.82;79.35;100679.33;1749661;81;21315;-76
2022/02/16 12:06:19;;;;;;;20.25;11.48;;;;;;;4.81;79.77;100669.48;1737459;80;21300;-76
2022/02/16 12:09:30;;;;;;;35.75;12.47;;;;;;;4.82;80.19;100652.23;1745064;81;21306;-76
2022/02/16 12:12:38;;;;;;;19.50;11.73;;;;;;;4.83;80.70;100660.72;1757844;81;21169;-85
2022/02/16 12:15:45;;;;;;;20.02;11.30;;;;;;;4.86;80.75;100656.40;1744063;81;21260;-86
2022/02/16 12:18:56;;;;;;;17.07;10.10;;;;;;;4.94;80.67;100653.52;1736810;81;22032;-85
2022/02/16 12:22:04;;;;;;;20.82;10.63;;;;;;;4.98;80.37;100653.12;1742844;81;21706;-76
2022/02/16 12:25:20;;;;;;;16.32;10.75;;;;;;;5.05;80.32;100648.90;1750173;81;21146;-85
2022/02/16 12:28:25;;;;;;;23.73;10.93;;;;;;;5.10;79.97;100646.64;1709166;82;21160;-77
2022/02/16 12:31:36;;;;;;;14.87;10.08;;;;;;;5.12;79.72;100649.22;1751618;80;21288;-86
2022/02/16 12:34:42;;;;;;;17.57;11.12;;;;;;;5.14;79.69;100651.31;1751375;81;21159;-76
2022/02/16 12:37:47;;;;;;;19.87;11.28;;;;;;;5.13;79.67;100648.25;1751519;81;21149;-77
2022/02/16 12:40:54;;;;;;;18.85;11.05;;;;;;;5.10;79.72;100654.78;1748860;81;21206;-76
2022/02/16 12:44:13;;;;;;;24.95;13.20;;;;;;;5.03;79.96;100640.52;1757305;81;21300;-76
2022/02/16 12:47:19;;;;;;;22.05;12.60;;;;;;;4.96;80.06;100639.34;1749728;81;21300;-84
2022/02/16 12:50:25;;;;;;;24.50;12.80;;;;;;;4.93;80.17;100639.09;1753478;81;21268;-85
2022/02/16 12:53:30;;;;;;;27.87;14.15;;;;;;;4.90;80.23;100635.81;1753405;81;21819;-85
2022/02/16 12:56:37;;;;;;;21.87;12.82;;;;;;;4.85;80.92;100644.34;1739967;80;21295;-76
2022/02/16 13:03:12;;;;;;;17.65;9.63;;;;;;;4.81;79.78;100626.63;1754286;81;21189;-76
2022/02/16 13:06:18;;;;;;;12.33;8.65;;;;;;;4.68;78.94;100614.61;1755973;81;21787;-85
2022/02/16 13:09:23;;;;;;;19.50;10.30;;;;;;;4.65;79.55;100605.38;1755995;81;21325;-84
2022/02/16 13:12:50;;;;;;;15.90;9.60;;;;;;;4.65;80.22;100610.80;1715018;82;21264;-85
2022/02/16 13:15:57;;;;;;;17.55;10.60;;;;;;;4.68;80.16;100610.55;1755957;81;21694;-75
2022/02/16 13:19:02;;;;;;;18.55;10.18;;;;;;;4.72;80.19;100608.44;1751560;81;21336;-76
2022/02/16 13:22:12;;;;;;;14.85;9.68;;;;;;;4.73;80.07;100601.52;1714886;82;21279;-75
2022/02/16 13:25:19;;;;;;;16.42;11.38;;;;;;;4.73;80.59;100600.67;1752622;81;21271;-76
2022/02/16 13:28:28;;;;;;;18.48;9.85;;;;;;;4.69;80.78;100594.64;1748350;81;21154;-77
2022/02/16 13:31:34;;;;;;;15.32;9.15;;;;;;;4.66;80.91;100593.57;1751953;81;21253;-77
2022/02/16 13:34:57;;;;;;;21.52;9.23;;;;;;;4.67;80.76;100584.45;1748834;81;21306;-85
2022/02/16 13:38:10;;;;;;;13.20;8.58;;;;;;;4.63;79.96;100578.92;1744769;81;21172;-85
2022/02/16 13:41:22;;;;;;;15.63;8.55;;;;;;;4.61;79.97;100576.82;1747871;80;21263;-85
2022/02/16 13:44:39;;;;;;;14.00;8.45;;;;;;;4.59;80.21;100576.11;1739736;81;21938;-85
2022/02/16 13:47:57;;;;;;;19.07;8.88;;;;;;;4.54;80.26;100567.02;1699075;83;21289;-78
2022/02/16 13:51:02;;;;;;;14.28;8.68;;;;;;;4.53;80.54;100573.94;1711470;83;21755;-86
2022/02/16 13:54:07;;;;;;;15.50;8.75;;;;;;;4.55;80.99;100566.52;1663100;85;21191;-83
2022/02/16 13:57:24;;;;;;;13.95;8.70;;;;;;;4.55;80.98;100562.45;1709928;83;21286;-76
2022/02/16 14:00:29;;;;;;;17.00;8.90;;;;;;;4.54;81.31;100558.03;1667784;85;21234;-86
2022/02/16 14:03:35;;;;;;;14.40;8.95;;;;;;;4.54;81.55;100549.91;1698862;83;21903;-85
2022/02/16 14:06:39;;;;;;;16.82;9.63;;;;;;;4.54;81.74;100545.84;1693335;84;21323;-77
2022/02/16 14:09:44;;;;;;;35.08;12.07;;;;;;;4.55;81.79;100538.93;1696796;82;21294;-77
2022/02/16 14:12:51;;;;;;;16.77;10.25;;;;;;;4.54;81.91;100525.53;1698903;84;21279;-77
2022/02/16 14:15:58;;;;;;;15.65;10.48;;;;;;;4.53;82.09;100526.52;1700482;84;21291;-77
2022/02/16 14:19:23;;;;;;;17.80;10.00;;;;;;;4.53;82.18;100522.46;1675453;84;21272;-77